createdAt,value
2019-04-01T00:01:07.628Z,102523.58
2019-04-01T00:03:36.312Z,102527.41
2019-04-01T00:06:03.157Z,102534.47
2019-04-01T00:08:30.558Z,102528.11
2019-04-01T00:10:57.654Z,102523.82
2019-04-01T00:13:24.500Z,102527.56
2019-04-01T00:15:51.104Z,102533.00
2019-04-01T00:18:18.322Z,102539.02
2019-04-01T00:20:45.232Z,102537.67
2019-04-01T00:23:12.156Z,102537.33
2019-04-01T00:25:39.644Z,102532.17
2019-04-01T00:28:06.358Z,102534.28
2019-04-01T00:30:33.001Z,102531.22
2019-04-01T00:33:00.905Z,102542.22
2019-04-01T00:35:27.792Z,102533.36
2019-04-01T00:37:55.257Z,102549.14
2019-04-01T00:40:23.211Z,102534.69
2019-04-01T00:43:12.499Z,102542.91
2019-04-01T00:45:40.892Z,102548.27
2019-04-01T00:48:07.472Z,102542.23
2019-04-01T00:50:34.248Z,102539.17
2019-04-01T00:53:02.154Z,102544.80
2019-04-01T00:55:30.010Z,102546.56
2019-04-01T00:58:00.189Z,102540.24
2019-04-01T01:00:27.122Z,102541.61
2019-04-01T01:02:54.065Z,102542.77
2019-04-01T01:05:20.970Z,102539.27
2019-04-01T01:07:47.945Z,102542.69
2019-04-01T01:10:15.300Z,102543.48
2019-04-01T01:12:42.089Z,102537.58
2019-04-01T01:15:08.975Z,102544.56
2019-04-01T01:17:36.858Z,102542.52
2019-04-01T01:20:03.957Z,102537.66
2019-04-01T01:22:30.658Z,102536.00
2019-04-01T01:24:57.318Z,102531.56
2019-04-01T01:27:25.642Z,102532.52
2019-04-01T01:29:52.325Z,102529.78
2019-04-01T01:32:19.294Z,102534.65
2019-04-01T01:34:46.033Z,102528.48
2019-04-01T01:37:12.815Z,102526.37
2019-04-01T01:39:40.343Z,102525.88
2019-04-01T01:42:07.018Z,102527.34
2019-04-01T01:44:34.383Z,102525.39
2019-04-01T01:47:02.062Z,102524.17
2019-04-01T01:49:28.874Z,102523.63
2019-04-01T01:51:56.476Z,102514.08
2019-04-01T01:54:23.080Z,102521.84
2019-04-01T01:56:49.732Z,102522.17
2019-04-01T01:59:16.633Z,102527.31
2019-04-01T02:01:43.581Z,102523.74
2019-04-01T02:04:10.333Z,102520.77
2019-04-01T02:06:37.642Z,102519.11
2019-04-01T02:09:04.924Z,102518.30
2019-04-01T02:11:32.142Z,102522.17
2019-04-01T02:13:59.078Z,102511.52
2019-04-01T02:16:25.703Z,102514.27
2019-04-01T02:18:52.333Z,102513.78
2019-04-01T02:21:18.987Z,102511.64
2019-04-01T02:23:46.171Z,102508.06
2019-04-01T02:26:13.065Z,102508.70
2019-04-01T02:28:40.253Z,102515.31
2019-04-01T02:31:06.864Z,102511.08
2019-04-01T02:33:34.147Z,102514.47
2019-04-01T02:36:00.998Z,102516.17
2019-04-01T02:38:28.260Z,102516.51
2019-04-01T02:40:58.331Z,102516.81
2019-04-01T02:43:24.965Z,102521.09
2019-04-01T02:45:51.787Z,102516.03
2019-04-01T02:48:18.953Z,102514.47
2019-04-01T02:50:45.729Z,102516.70
2019-04-01T02:53:13.011Z,102521.47
2019-04-01T02:55:41.625Z,102521.47
2019-04-01T02:58:09.072Z,102522.22
2019-04-01T03:00:35.754Z,102522.08
2019-04-01T03:03:02.612Z,102521.67
2019-04-01T03:05:30.321Z,102521.07
2019-04-01T03:07:57.124Z,102519.30
2019-04-01T03:10:23.917Z,102509.14
2019-04-01T03:12:50.590Z,102511.40
2019-04-01T03:15:17.627Z,102520.69
2019-04-01T03:17:44.946Z,102510.12
2019-04-01T03:20:11.664Z,102515.36
2019-04-01T03:22:38.367Z,102508.29
2019-04-01T03:25:05.270Z,102511.08
2019-04-01T03:27:33.360Z,102517.28
2019-04-01T03:30:01.367Z,102516.83
2019-04-01T03:32:28.946Z,102520.58
2019-04-01T03:34:55.733Z,102519.92
2019-04-01T03:37:23.207Z,102518.91
2019-04-01T03:39:50.084Z,102522.30
2019-04-01T03:42:17.063Z,102516.48
2019-04-01T03:44:43.662Z,102519.48
2019-04-01T03:47:11.438Z,102522.95
2019-04-01T03:49:38.875Z,102528.06
2019-04-01T03:52:10.350Z,102532.39
2019-04-01T03:54:37.374Z,102525.97
2019-04-01T03:57:03.967Z,102526.84
2019-04-01T03:59:30.669Z,102530.64
2019-04-01T04:01:57.310Z,102527.88
2019-04-01T04:04:24.375Z,102523.67
2019-04-01T04:06:51.660Z,102527.27
2019-04-01T04:09:18.732Z,102527.02
2019-04-01T04:11:45.580Z,102525.73
2019-04-01T04:14:12.879Z,102520.77
2019-04-01T04:16:40.216Z,102528.34
2019-04-01T04:19:07.495Z,102529.77
2019-04-01T04:21:34.279Z,102532.17
2019-04-01T04:24:00.978Z,102533.17
2019-04-01T04:26:28.140Z,102530.25
2019-04-01T04:28:54.726Z,102539.15
2019-04-01T04:31:21.572Z,102538.86
2019-04-01T04:33:49.681Z,102531.51
2019-04-01T04:36:16.683Z,102538.21
2019-04-01T04:38:44.165Z,102539.81
2019-04-01T04:41:10.849Z,102540.84
2019-04-01T04:43:37.739Z,102541.17
2019-04-01T04:46:04.831Z,102537.83
2019-04-01T04:48:31.820Z,102540.91
2019-04-01T04:50:58.732Z,102546.97
2019-04-01T04:53:25.979Z,102552.19
2019-04-01T04:55:52.735Z,102558.80
2019-04-01T04:58:19.628Z,102549.78
2019-04-01T05:00:46.478Z,102554.75
2019-04-01T05:03:13.280Z,102555.45
2019-04-01T05:05:40.130Z,102554.94
2019-04-01T05:08:08.208Z,102549.94
2019-04-01T05:10:35.835Z,102557.90
2019-04-01T05:13:03.430Z,102559.34
2019-04-01T05:15:30.038Z,102554.12
2019-04-01T05:17:56.984Z,102551.71
2019-04-01T05:20:23.919Z,102563.72
2019-04-01T05:22:50.748Z,102562.59
2019-04-01T05:25:18.642Z,102563.25
2019-04-01T05:27:45.923Z,102565.50
2019-04-01T05:30:13.925Z,102565.25
2019-04-01T05:32:42.014Z,102569.77
2019-04-01T05:35:09.202Z,102571.99
2019-04-01T05:37:36.857Z,102573.25
2019-04-01T05:40:04.454Z,102568.44
2019-04-01T05:42:32.999Z,102566.19
2019-04-01T05:45:00.580Z,102576.16
2019-04-01T05:47:35.410Z,102579.46
2019-04-01T05:50:03.402Z,102581.34
2019-04-01T05:52:30.868Z,102578.38
2019-04-01T05:54:58.261Z,102577.62
2019-04-01T05:57:25.260Z,102586.42
2019-04-01T05:59:52.893Z,102584.95
2019-04-01T06:02:19.739Z,102589.50
2019-04-01T06:04:48.386Z,102592.60
2019-04-01T06:07:16.140Z,102588.30
2019-04-01T06:09:43.315Z,102594.52
2019-04-01T06:12:10.278Z,102599.98
2019-04-01T06:14:38.490Z,102585.52
2019-04-01T06:17:05.591Z,102584.45
2019-04-01T06:19:33.447Z,102592.20
2019-04-01T06:22:00.462Z,102592.59
2019-04-01T06:24:28.560Z,102588.80
2019-04-01T06:26:55.742Z,102589.92
2019-04-01T06:29:22.578Z,102584.56
2019-04-01T06:31:49.212Z,102591.92
2019-04-01T06:34:16.451Z,102594.67
2019-04-01T06:36:43.915Z,102595.20
2019-04-01T06:39:10.686Z,102595.22
2019-04-01T06:41:37.284Z,102584.16
2019-04-01T06:44:04.122Z,102595.77
2019-04-01T06:46:30.912Z,102593.48
2019-04-01T06:48:57.842Z,102590.67
2019-04-01T06:51:24.842Z,102583.58
2019-04-01T06:53:52.299Z,102591.05
2019-04-01T06:56:19.457Z,102591.23
2019-04-01T06:58:46.128Z,102583.50
2019-04-01T07:01:16.180Z,102588.61
2019-04-01T07:03:44.128Z,102591.63
2019-04-01T07:06:10.982Z,102588.17
2019-04-01T07:08:37.871Z,102589.00
2019-04-01T07:11:04.568Z,102588.12
2019-04-01T07:13:32.265Z,102591.57
2019-04-01T07:16:03.881Z,102590.19
2019-04-01T07:18:27.459Z,102591.21
2019-04-01T07:20:54.407Z,102598.14
2019-04-01T07:23:21.392Z,102601.20
2019-04-01T07:25:48.201Z,102594.80
2019-04-01T07:28:16.059Z,102600.81
2019-04-01T07:30:43.414Z,102601.72
2019-04-01T07:33:10.016Z,102596.07
2019-04-01T07:35:36.756Z,102595.42
2019-04-01T07:38:04.295Z,102595.42
2019-04-01T07:40:33.114Z,102604.07
2019-04-01T07:43:00.012Z,102598.64
2019-04-01T07:45:26.736Z,102598.97
2019-04-01T07:47:54.308Z,102600.72
2019-04-01T07:50:21.097Z,102604.02
2019-04-01T07:52:47.648Z,102593.89
2019-04-01T07:55:16.214Z,102601.60
2019-04-01T07:57:43.050Z,102595.23
2019-04-01T08:00:09.860Z,102601.91
2019-04-01T08:02:36.607Z,102602.08
2019-04-01T08:05:04.907Z,102599.66
2019-04-01T08:07:31.976Z,102599.33
2019-04-01T08:09:59.442Z,102596.33
2019-04-01T08:12:27.927Z,102597.44
2019-04-01T08:14:55.178Z,102587.91
2019-04-01T08:17:22.987Z,102586.65
2019-04-01T08:19:49.679Z,102583.94
2019-04-01T08:22:17.989Z,102589.41
2019-04-01T08:24:44.933Z,102578.13
2019-04-01T08:27:11.726Z,102584.94
2019-04-01T08:29:38.664Z,102577.97
2019-04-01T08:32:06.512Z,102583.66
2019-04-01T08:34:33.926Z,102574.15
2019-04-01T08:37:01.135Z,102574.70
2019-04-01T08:39:28.185Z,102568.95
2019-04-01T08:41:54.995Z,102570.67
2019-04-01T08:44:22.685Z,102566.69
2019-04-01T08:46:49.985Z,102563.28
2019-04-01T08:49:16.725Z,102568.09
2019-04-01T08:51:44.115Z,102572.97
2019-04-01T08:54:10.788Z,102565.86
2019-04-01T08:56:44.886Z,102560.14
2019-04-01T08:59:13.491Z,102554.27
2019-04-01T09:01:40.587Z,102555.48
2019-04-01T09:04:09.089Z,102554.11
2019-04-01T09:06:36.136Z,102551.80
2019-04-01T09:09:05.074Z,102547.09
2019-04-01T09:11:32.321Z,102543.96
2019-04-01T09:14:00.439Z,102545.79
2019-04-01T09:16:27.321Z,102542.60
2019-04-01T09:18:54.015Z,102534.63
2019-04-01T09:21:21.113Z,102541.77
2019-04-01T09:23:48.183Z,102533.00
2019-04-01T09:26:15.315Z,102532.29
2019-04-01T09:28:42.179Z,102528.41
2019-04-01T09:31:09.856Z,102532.39
2019-04-01T09:33:38.322Z,102525.63
2019-04-01T09:36:05.293Z,102526.30
2019-04-01T09:38:32.207Z,102524.14
2019-04-01T09:40:58.805Z,102517.70
2019-04-01T09:43:25.523Z,102519.04
2019-04-01T09:45:52.254Z,102518.83
2019-04-01T09:48:19.684Z,102526.97
2019-04-01T09:50:46.364Z,102509.34
2019-04-01T09:53:13.174Z,102510.45
2019-04-01T09:55:40.400Z,102513.95
2019-04-01T09:58:07.380Z,102507.25
2019-04-01T10:00:34.443Z,102507.87
2019-04-01T10:03:02.556Z,102502.39
2019-04-01T10:05:29.545Z,102495.70
2019-04-01T10:07:56.221Z,102491.77
2019-04-01T10:10:23.248Z,102490.77
2019-04-01T10:12:50.791Z,102491.89
2019-04-01T10:15:19.086Z,102487.50
2019-04-01T10:17:46.309Z,102493.15
2019-04-01T10:20:14.295Z,102483.63
2019-04-01T10:22:41.025Z,102476.55
2019-04-01T10:25:07.849Z,102478.72
2019-04-01T10:27:34.947Z,102475.16
2019-04-01T10:30:01.823Z,102474.91
2019-04-01T10:32:29.287Z,102465.94
2019-04-01T10:34:57.637Z,102454.91
2019-04-01T10:37:24.351Z,102459.94
2019-04-01T10:39:51.033Z,102451.67
2019-04-01T10:42:19.083Z,102465.44
2019-04-01T10:44:47.866Z,102457.25
2019-04-01T10:47:14.799Z,102454.94
2019-04-01T10:49:42.851Z,102453.02
2019-04-01T10:52:09.789Z,102456.68
2019-04-01T10:54:36.705Z,102446.87
2019-04-01T10:57:03.664Z,102448.48
2019-04-01T10:59:30.255Z,102449.52
2019-04-01T11:01:56.971Z,102443.69
2019-04-01T11:04:23.667Z,102431.21
2019-04-01T11:06:52.646Z,102434.31
2019-04-01T11:09:20.365Z,102435.70
2019-04-01T11:11:47.423Z,102432.23
2019-04-01T11:14:14.115Z,102426.31
2019-04-01T11:16:40.988Z,102423.30
2019-04-01T11:19:07.954Z,102420.69
2019-04-01T11:21:34.811Z,102422.71
2019-04-01T11:24:02.187Z,102420.91
2019-04-01T11:26:30.489Z,102412.48
2019-04-01T11:28:57.271Z,102408.41
2019-04-01T11:31:24.216Z,102410.20
2019-04-01T11:33:51.403Z,102418.00
2019-04-01T11:36:19.606Z,102407.23
2019-04-01T11:38:46.436Z,102402.07
2019-04-01T11:41:13.525Z,102394.55
2019-04-01T11:43:40.126Z,102393.77
2019-04-01T11:46:07.383Z,102379.80
2019-04-01T11:48:34.093Z,102380.98
2019-04-01T11:51:01.488Z,102379.79
2019-04-01T11:53:28.163Z,102373.44
2019-04-01T11:55:55.197Z,102371.94
2019-04-01T11:58:22.326Z,102370.19
2019-04-01T12:00:49.995Z,102371.27
2019-04-01T12:03:17.829Z,102361.42
2019-04-01T12:05:45.521Z,102361.05
2019-04-01T12:08:13.446Z,102353.08
2019-04-01T12:10:40.595Z,102352.97
2019-04-01T12:13:08.157Z,102341.46
2019-04-01T12:15:35.519Z,102346.84
2019-04-01T12:18:03.228Z,102334.65
2019-04-01T12:20:30.225Z,102325.77
2019-04-01T12:22:57.141Z,102322.79
2019-04-01T12:25:25.174Z,102321.64
2019-04-01T12:27:51.792Z,102319.80
2019-04-01T12:30:19.096Z,102319.66
2019-04-01T12:32:46.807Z,102324.70
2019-04-01T12:35:13.709Z,102295.13
2019-04-01T12:37:40.842Z,102293.38
2019-04-01T12:40:08.666Z,102284.73
2019-04-01T12:42:35.791Z,102289.78
2019-04-01T12:45:03.365Z,102273.86
2019-04-01T12:47:30.658Z,102279.08
2019-04-01T12:49:57.613Z,102274.39
2019-04-01T12:52:24.745Z,102263.30
2019-04-01T12:54:51.571Z,102265.67
2019-04-01T12:57:18.999Z,102261.84
2019-04-01T12:59:46.418Z,102258.50
2019-04-01T13:02:13.180Z,102258.60
2019-04-01T13:04:42.200Z,102248.59
2019-04-01T13:07:09.384Z,102241.98
2019-04-01T13:09:36.023Z,102239.78
2019-04-01T13:12:03.070Z,102234.39
2019-04-01T13:14:30.417Z,102232.30
2019-04-01T13:16:58.437Z,102225.42
2019-04-01T13:19:27.452Z,102223.53
2019-04-01T13:21:55.574Z,102215.33
2019-04-01T13:24:22.161Z,102212.84
2019-04-01T13:26:50.838Z,102201.36
2019-04-01T13:29:17.556Z,102198.80
2019-04-01T13:31:44.236Z,102200.02
2019-04-01T13:34:12.827Z,102191.68
2019-04-01T13:36:40.398Z,102187.70
2019-04-01T13:39:07.222Z,102180.94
2019-04-01T13:41:42.288Z,102164.50
2019-04-01T13:44:03.082Z,102174.70
2019-04-01T13:46:30.230Z,102152.45
2019-04-01T13:48:59.279Z,102154.67
2019-04-01T13:51:26.128Z,102155.30
2019-04-01T13:54:07.675Z,102166.26
2019-04-01T13:56:21.442Z,102139.05
2019-04-01T13:58:49.657Z,102133.20
2019-04-01T14:01:16.199Z,102133.22
2019-04-01T14:03:43.353Z,102138.77
2019-04-01T14:06:10.139Z,102126.99
2019-04-01T14:08:37.397Z,102130.28
2019-04-01T14:11:05.999Z,102120.20
2019-04-01T14:13:32.787Z,102127.28
2019-04-01T14:15:59.425Z,102113.92
2019-04-01T14:18:26.145Z,102111.96
2019-04-01T14:20:52.883Z,102107.19
2019-04-01T14:23:23.229Z,102101.23
2019-04-01T14:25:48.294Z,102099.25
2019-04-01T14:28:15.876Z,102100.75
2019-04-01T14:30:42.622Z,102088.14
2019-04-01T14:33:10.779Z,102080.80
2019-04-01T14:35:44.919Z,102078.83
2019-04-01T14:38:10.615Z,102073.11
2019-04-01T14:40:37.946Z,102065.48
2019-04-01T14:43:05.645Z,102068.36
2019-04-01T14:45:34.644Z,102059.11
2019-04-01T14:48:02.867Z,102050.95
2019-04-01T14:50:31.163Z,102048.16
2019-04-01T14:52:58.049Z,102047.00
2019-04-01T14:55:24.635Z,102037.25
2019-04-01T14:57:51.708Z,102030.94
2019-04-01T15:00:20.073Z,102030.78
2019-04-01T15:02:47.014Z,102026.33
2019-04-01T15:05:15.113Z,102022.64
2019-04-01T15:07:53.757Z,102026.70
2019-04-01T15:10:22.392Z,102012.19
2019-04-01T15:13:04.307Z,102019.16
2019-04-01T15:15:20.028Z,102008.16
2019-04-01T15:17:47.243Z,101998.35
2019-04-01T15:20:16.210Z,101992.44
2019-04-01T15:22:42.816Z,102006.23
2019-04-01T15:25:09.692Z,101992.72
2019-04-01T15:27:36.680Z,101989.88
2019-04-01T15:30:04.123Z,101983.94
2019-04-01T15:32:31.182Z,101978.58
2019-04-01T15:34:59.274Z,101980.93
2019-04-01T15:37:26.647Z,101977.77
2019-04-01T15:39:53.382Z,101974.67
2019-04-01T15:42:19.957Z,101972.85
2019-04-01T15:44:46.561Z,101968.66
2019-04-01T15:47:16.146Z,101951.34
2019-04-01T15:49:42.823Z,101954.38
2019-04-01T15:52:11.156Z,101958.09
2019-04-01T15:54:38.167Z,101949.62
2019-04-01T15:57:05.134Z,101944.56
2019-04-01T15:59:32.030Z,101945.16
2019-04-01T16:01:59.529Z,101939.36
2019-04-01T16:04:28.657Z,101937.88
2019-04-01T16:06:55.651Z,101936.34
2019-04-01T16:09:23.250Z,101926.80
2019-04-01T16:11:50.243Z,101930.16
2019-04-01T16:14:19.225Z,101918.58
2019-04-01T16:16:46.043Z,101918.37
2019-04-01T16:19:12.621Z,101915.95
2019-04-01T16:21:39.392Z,101907.86
2019-04-01T16:24:06.181Z,101906.45
2019-04-01T16:26:34.635Z,101904.87
2019-04-01T16:29:02.073Z,101906.72
2019-04-01T16:31:29.012Z,101904.16
2019-04-01T16:33:55.630Z,101905.61
2019-04-01T16:36:22.643Z,101899.45
2019-04-01T16:38:50.161Z,101895.43
2019-04-01T16:41:17.034Z,101899.32
2019-04-01T16:43:43.751Z,101894.50
2019-04-01T16:46:12.344Z,101894.80
2019-04-01T16:48:39.648Z,101891.23
2019-04-01T16:51:06.379Z,101893.45
2019-04-01T16:53:33.287Z,101891.62
2019-04-01T16:56:00.854Z,101890.08
2019-04-01T16:58:27.871Z,101886.72
2019-04-01T17:00:55.263Z,101886.25
2019-04-01T17:03:21.965Z,101882.58
2019-04-01T17:05:49.072Z,101883.98
2019-04-01T17:08:16.208Z,101881.05
2019-04-01T17:10:43.865Z,101882.77
2019-04-01T17:13:10.911Z,101877.20
2019-04-01T17:15:39.263Z,101872.71
2019-04-01T17:18:06.038Z,101865.62
2019-04-01T17:20:32.795Z,101872.33
2019-04-01T17:23:01.085Z,101864.31
2019-04-01T17:25:29.174Z,101859.92
2019-04-01T17:27:55.751Z,101864.00
2019-04-01T17:30:22.966Z,101861.47
2019-04-01T17:32:50.030Z,101861.52
2019-04-01T17:35:17.283Z,101860.16
2019-04-01T17:37:44.045Z,101858.52
2019-04-01T17:40:12.361Z,101858.03
2019-04-01T17:42:40.963Z,101860.78
2019-04-01T17:45:32.413Z,101861.50
2019-04-01T17:48:00.633Z,101864.91
2019-04-01T17:50:29.141Z,101863.20
2019-04-01T17:52:56.584Z,101864.52
2019-04-01T17:55:24.594Z,101865.48
2019-04-01T17:57:51.456Z,101861.83
2019-04-01T18:00:21.628Z,101863.87
2019-04-01T18:02:49.275Z,101867.00
2019-04-01T18:05:16.094Z,101861.44
2019-04-01T18:07:43.731Z,101865.00
2019-04-01T18:10:12.135Z,101867.50
2019-04-01T18:12:38.860Z,101867.02
2019-04-01T18:15:05.577Z,101866.52
2019-04-01T18:17:32.352Z,101870.02
2019-04-01T18:20:00.851Z,101875.48
2019-04-01T18:22:29.115Z,101872.98
2019-04-01T18:28:22.152Z,101874.43
2019-04-01T18:30:48.744Z,101881.08
2019-04-01T18:33:15.329Z,101878.59
2019-04-01T18:35:44.764Z,101877.57
2019-04-01T18:38:11.007Z,101874.68
2019-04-01T18:40:38.401Z,101882.06
2019-04-01T18:43:05.459Z,101876.64
2019-04-01T18:45:32.243Z,101877.87
2019-04-01T18:47:59.245Z,101873.84
2019-04-01T18:50:25.957Z,101867.22
2019-04-01T18:52:52.615Z,101873.48
2019-04-01T18:55:19.381Z,101863.78
2019-04-01T18:57:46.029Z,101873.80
2019-04-01T19:00:13.413Z,101867.20
2019-04-01T19:02:40.160Z,101866.53
2019-04-01T19:05:06.957Z,101869.84
2019-04-01T19:07:35.314Z,101865.59
2019-04-01T19:10:06.424Z,101871.17
2019-04-01T19:12:30.969Z,101868.44
2019-04-01T19:14:57.713Z,101870.94
2019-04-01T19:17:24.330Z,101861.43
2019-04-01T19:19:52.801Z,101857.73
2019-04-01T19:22:19.716Z,101862.13
2019-04-01T19:24:46.747Z,101856.23
2019-04-01T19:27:13.468Z,101853.70
2019-04-01T19:29:42.929Z,101852.79
2019-04-01T19:32:09.544Z,101856.81
2019-04-01T19:34:36.802Z,101847.88
2019-04-01T19:37:03.981Z,101853.50
2019-04-01T19:39:30.723Z,101861.23
2019-04-01T19:41:57.875Z,101856.78
2019-04-01T19:44:24.447Z,101849.64
2019-04-01T19:46:51.276Z,101843.63
2019-04-01T19:49:18.178Z,101844.51
2019-04-01T19:51:44.797Z,101845.22
2019-04-01T19:54:12.606Z,101840.70
2019-04-01T19:56:39.231Z,101845.65
2019-04-01T19:59:05.827Z,101834.39
2019-04-01T20:01:33.915Z,101833.28
2019-04-01T20:04:00.582Z,101829.17
2019-04-01T20:06:27.207Z,101824.75
2019-04-01T20:08:53.806Z,101832.40
2019-04-01T20:11:20.502Z,101821.92
2019-04-01T20:13:48.479Z,101824.41
2019-04-01T20:16:15.579Z,101817.14
2019-04-01T20:18:42.192Z,101816.58
2019-04-01T20:21:08.851Z,101814.72
2019-04-01T20:23:36.343Z,101805.24
2019-04-01T20:26:03.428Z,101800.42
2019-04-01T20:28:30.354Z,101800.78
2019-04-01T20:30:57.521Z,101803.30
2019-04-01T20:33:25.194Z,101799.80
2019-04-01T20:35:52.144Z,101796.72
2019-04-01T20:38:19.017Z,101801.45
2019-04-01T20:40:45.695Z,101792.89
2019-04-01T20:43:12.457Z,101793.28
2019-04-01T20:45:39.202Z,101791.14
2019-04-01T20:48:06.474Z,101787.92
2019-04-01T20:50:33.640Z,101780.45
2019-04-01T20:53:00.315Z,101774.07
2019-04-01T20:55:27.001Z,101771.87
2019-04-01T20:57:54.016Z,101766.30
2019-04-01T21:00:20.623Z,101766.37
2019-04-01T21:02:47.224Z,101762.44
2019-04-01T21:05:14.433Z,101761.87
2019-04-01T21:07:42.003Z,101753.22
2019-04-01T21:10:09.150Z,101750.67
2019-04-01T21:12:37.264Z,101745.95
2019-04-01T21:15:04.761Z,101746.42
2019-04-01T21:17:32.079Z,101745.43
2019-04-01T21:19:59.109Z,101743.64
2019-04-01T21:22:25.996Z,101743.11
2019-04-01T21:24:52.735Z,101736.83
2019-04-01T21:27:19.477Z,101743.67
2019-04-01T21:29:47.025Z,101733.13
2019-04-01T21:32:13.929Z,101728.52
2019-04-01T21:34:41.149Z,101732.48
2019-04-01T21:37:08.347Z,101727.54
2019-04-01T21:39:37.736Z,101725.30
2019-04-01T21:42:04.170Z,101717.06
2019-04-01T21:44:31.066Z,101728.14
2019-04-01T21:46:57.723Z,101717.11
2019-04-01T21:49:24.850Z,101702.41
2019-04-01T21:51:51.705Z,101702.11
2019-04-01T21:54:18.866Z,101698.71
2019-04-01T21:56:45.439Z,101693.84
2019-04-01T21:59:12.620Z,101687.80
2019-04-01T22:01:40.685Z,101687.80
2019-04-01T22:04:08.376Z,101694.58
2019-04-01T22:06:34.984Z,101687.50
2019-04-01T22:09:06.597Z,101686.09
2019-04-01T22:11:34.366Z,101682.18
2019-04-01T22:14:01.079Z,101677.11
2019-04-01T22:16:27.974Z,101680.84
2019-04-01T22:18:54.566Z,101667.61
2019-04-01T22:21:21.310Z,101668.63
2019-04-01T22:23:48.303Z,101665.13
2019-04-01T22:26:15.722Z,101656.72
2019-04-01T22:28:42.853Z,101648.45
2019-04-01T22:31:09.621Z,101652.21
2019-04-01T22:33:37.204Z,101643.06
2019-04-01T22:36:04.236Z,101646.94
2019-04-01T22:38:31.157Z,101642.82
2019-04-01T22:40:57.854Z,101641.22
2019-04-01T22:43:25.383Z,101645.06
2019-04-01T22:45:52.411Z,101642.02
2019-04-01T22:48:19.088Z,101642.27
2019-04-01T22:50:46.070Z,101641.08
2019-04-01T22:53:13.065Z,101631.14
2019-04-01T22:55:40.679Z,101632.19
2019-04-01T22:58:07.275Z,101624.69
2019-04-01T23:00:34.293Z,101624.80
2019-04-01T23:03:01.171Z,101626.81
2019-04-01T23:05:27.811Z,101628.89
2019-04-01T23:07:54.495Z,101626.08
2019-04-01T23:10:21.173Z,101623.19
2019-04-01T23:12:48.221Z,101619.20
2019-04-01T23:15:15.773Z,101618.59
2019-04-01T23:17:42.604Z,101617.77
2019-04-01T23:20:09.613Z,101612.63
2019-04-01T23:22:36.262Z,101613.66
2019-04-01T23:25:03.742Z,101615.80
2019-04-01T23:27:31.506Z,101615.44
2019-04-01T23:29:58.070Z,101620.53
2019-04-01T23:32:25.625Z,101607.34
2019-04-01T23:34:52.737Z,101604.52
2019-04-01T23:37:19.470Z,101597.97
2019-04-01T23:39:46.113Z,101600.91
2019-04-01T23:42:13.480Z,101594.40
2019-04-01T23:44:40.957Z,101584.61
2019-04-01T23:47:09.815Z,101579.12
2019-04-01T23:49:37.326Z,101573.73
2019-04-01T23:52:05.914Z,101572.12
2019-04-01T23:54:32.929Z,101567.70
2019-04-01T23:56:59.858Z,101564.73
2019-04-01T23:59:26.592Z,101561.16
